sensor_id;sensor_type;location;lat;lon;timestamp;P1;durP1;ratioP1;P2;durP2;ratioP2
76550;SDS011;68768;53.156;18.164;2023-07-20T00:01:52;6.50;;;3.80;;
76550;SDS011;68768;53.156;18.164;2023-07-20T00:04:19;4.50;;;3.40;;
76550;SDS011;68768;53.156;18.164;2023-07-20T00:06:46;6.70;;;3.70;;
76550;SDS011;68768;53.156;18.164;2023-07-20T00:09:13;4.70;;;3.50;;
76550;SDS011;68768;53.156;18.164;2023-07-20T00:11:40;4.80;;;3.50;;
76550;SDS011;68768;53.156;18.164;2023-07-20T00:14:07;3.90;;;3.40;;
76550;SDS011;68768;53.156;18.164;2023-07-20T00:16:34;4.90;;;3.30;;
76550;SDS011;68768;53.156;18.164;2023-07-20T00:19:00;5.10;;;3.90;;
76550;SDS011;68768;53.156;18.164;2023-07-20T00:21:27;6.10;;;4.10;;
76550;SDS011;68768;53.156;18.164;2023-07-20T00:23:54;5.50;;;3.80;;
76550;SDS011;68768;53.156;18.164;2023-07-20T00:26:21;5.90;;;3.90;;
76550;SDS011;68768;53.156;18.164;2023-07-20T00:28:49;6.90;;;3.80;;
76550;SDS011;68768;53.156;18.164;2023-07-20T00:31:19;4.60;;;3.60;;
76550;SDS011;68768;53.156;18.164;2023-07-20T00:33:46;6.60;;;3.70;;
76550;SDS011;68768;53.156;18.164;2023-07-20T00:36:14;7.10;;;3.80;;
76550;SDS011;68768;53.156;18.164;2023-07-20T00:38:42;6.20;;;3.60;;
76550;SDS011;68768;53.156;18.164;2023-07-20T00:41:09;4.70;;;3.30;;
76550;SDS011;68768;53.156;18.164;2023-07-20T00:43:36;4.80;;;3.30;;
76550;SDS011;68768;53.156;18.164;2023-07-20T00:46:03;4.80;;;3.40;;
76550;SDS011;68768;53.156;18.164;2023-07-20T00:48:31;4.40;;;3.60;;
76550;SDS011;68768;53.156;18.164;2023-07-20T00:50:59;5.80;;;3.10;;
76550;SDS011;68768;53.156;18.164;2023-07-20T00:53:27;4.50;;;3.50;;
76550;SDS011;68768;53.156;18.164;2023-07-20T00:55:54;6.60;;;3.50;;
76550;SDS011;68768;53.156;18.164;2023-07-20T00:58:22;5.50;;;3.70;;
76550;SDS011;68768;53.156;18.164;2023-07-20T01:00:51;3.80;;;3.20;;
76550;SDS011;68768;53.156;18.164;2023-07-20T01:03:19;5.60;;;3.60;;
76550;SDS011;68768;53.156;18.164;2023-07-20T01:11:57;6.20;;;4.00;;
76550;SDS011;68768;53.156;18.164;2023-07-20T01:14:33;6.00;;;4.10;;
76550;SDS011;68768;53.156;18.164;2023-07-20T01:17:01;6.30;;;3.90;;
76550;SDS011;68768;53.156;18.164;2023-07-20T01:19:29;5.20;;;3.80;;
76550;SDS011;68768;53.156;18.164;2023-07-20T01:21:59;5.90;;;4.10;;
76550;SDS011;68768;53.156;18.164;2023-07-20T01:35:23;7.80;;;4.50;;
76550;SDS011;68768;53.156;18.164;2023-07-20T01:37:54;8.10;;;4.80;;
76550;SDS011;68768;53.156;18.164;2023-07-20T01:40:23;6.50;;;4.80;;
76550;SDS011;68768;53.156;18.164;2023-07-20T01:42:53;6.00;;;4.20;;
76550;SDS011;68768;53.156;18.164;2023-07-20T01:45:20;8.80;;;4.90;;
76550;SDS011;68768;53.156;18.164;2023-07-20T01:47:47;7.10;;;4.70;;
76550;SDS011;68768;53.156;18.164;2023-07-20T01:50:14;5.50;;;4.30;;
76550;SDS011;68768;53.156;18.164;2023-07-20T01:52:41;6.60;;;4.30;;
76550;SDS011;68768;53.156;18.164;2023-07-20T01:55:08;5.20;;;4.20;;
76550;SDS011;68768;53.156;18.164;2023-07-20T01:57:35;7.30;;;4.30;;
76550;SDS011;68768;53.156;18.164;2023-07-20T02:00:02;9.50;;;4.40;;
76550;SDS011;68768;53.156;18.164;2023-07-20T02:02:41;6.60;;;4.20;;
76550;SDS011;68768;53.156;18.164;2023-07-20T02:05:10;7.70;;;4.60;;
76550;SDS011;68768;53.156;18.164;2023-07-20T02:07:37;6.00;;;4.50;;
76550;SDS011;68768;53.156;18.164;2023-07-20T02:10:04;6.40;;;4.90;;
76550;SDS011;68768;53.156;18.164;2023-07-20T02:12:31;7.20;;;5.50;;
76550;SDS011;68768;53.156;18.164;2023-07-20T02:14:58;6.40;;;5.40;;
76550;SDS011;68768;53.156;18.164;2023-07-20T02:17:25;6.90;;;4.90;;
76550;SDS011;68768;53.156;18.164;2023-07-20T02:19:52;9.50;;;5.70;;
76550;SDS011;68768;53.156;18.164;2023-07-20T02:22:20;6.30;;;5.70;;
76550;SDS011;68768;53.156;18.164;2023-07-20T02:24:47;7.40;;;5.00;;
76550;SDS011;68768;53.156;18.164;2023-07-20T02:27:14;7.00;;;5.70;;
76550;SDS011;68768;53.156;18.164;2023-07-20T02:29:41;8.70;;;6.20;;
76550;SDS011;68768;53.156;18.164;2023-07-20T02:32:10;8.20;;;5.50;;
76550;SDS011;68768;53.156;18.164;2023-07-20T02:34:37;9.40;;;5.80;;
76550;SDS011;68768;53.156;18.164;2023-07-20T02:37:05;7.80;;;5.70;;
76550;SDS011;68768;53.156;18.164;2023-07-20T02:39:32;7.10;;;4.60;;
76550;SDS011;68768;53.156;18.164;2023-07-20T02:41:59;8.00;;;5.30;;
76550;SDS011;68768;53.156;18.164;2023-07-20T02:44:26;10.20;;;4.80;;
76550;SDS011;68768;53.156;18.164;2023-07-20T02:46:52;5.60;;;4.00;;
76550;SDS011;68768;53.156;18.164;2023-07-20T02:49:19;6.30;;;4.00;;
76550;SDS011;68768;53.156;18.164;2023-07-20T02:51:47;6.10;;;3.50;;
76550;SDS011;68768;53.156;18.164;2023-07-20T02:54:14;7.80;;;3.70;;
76550;SDS011;68768;53.156;18.164;2023-07-20T02:56:41;4.80;;;2.90;;
76550;SDS011;68768;53.156;18.164;2023-07-20T02:59:08;4.20;;;2.80;;
76550;SDS011;68768;53.156;18.164;2023-07-20T03:01:36;6.80;;;3.20;;
76550;SDS011;68768;53.156;18.164;2023-07-20T03:04:04;4.50;;;2.90;;
76550;SDS011;68768;53.156;18.164;2023-07-20T03:06:31;4.90;;;2.70;;
76550;SDS011;68768;53.156;18.164;2023-07-20T03:08:58;7.10;;;3.30;;
76550;SDS011;68768;53.156;18.164;2023-07-20T03:11:25;3.30;;;2.60;;
76550;SDS011;68768;53.156;18.164;2023-07-20T03:13:52;7.20;;;3.10;;
76550;SDS011;68768;53.156;18.164;2023-07-20T03:16:19;5.70;;;3.10;;
76550;SDS011;68768;53.156;18.164;2023-07-20T03:18:46;3.70;;;2.70;;
76550;SDS011;68768;53.156;18.164;2023-07-20T03:21:14;3.70;;;2.80;;
76550;SDS011;68768;53.156;18.164;2023-07-20T03:23:41;3.50;;;2.60;;
76550;SDS011;68768;53.156;18.164;2023-07-20T03:26:08;4.60;;;3.00;;
76550;SDS011;68768;53.156;18.164;2023-07-20T03:28:36;4.20;;;3.00;;
76550;SDS011;68768;53.156;18.164;2023-07-20T03:31:04;5.80;;;2.60;;
76550;SDS011;68768;53.156;18.164;2023-07-20T03:33:34;4.70;;;3.20;;
76550;SDS011;68768;53.156;18.164;2023-07-20T03:36:01;4.00;;;2.50;;
76550;SDS011;68768;53.156;18.164;2023-07-20T03:38:29;4.80;;;3.00;;
76550;SDS011;68768;53.156;18.164;2023-07-20T03:40:56;6.30;;;3.10;;
76550;SDS011;68768;53.156;18.164;2023-07-20T03:43:26;5.20;;;3.20;;
76550;SDS011;68768;53.156;18.164;2023-07-20T03:45:54;4.80;;;3.00;;
76550;SDS011;68768;53.156;18.164;2023-07-20T03:48:22;3.30;;;2.60;;
76550;SDS011;68768;53.156;18.164;2023-07-20T03:50:50;3.70;;;2.80;;
76550;SDS011;68768;53.156;18.164;2023-07-20T03:53:18;5.20;;;3.00;;
76550;SDS011;68768;53.156;18.164;2023-07-20T03:55:46;4.30;;;2.80;;
76550;SDS011;68768;53.156;18.164;2023-07-20T03:58:14;4.10;;;2.90;;
76550;SDS011;68768;53.156;18.164;2023-07-20T04:00:45;6.70;;;3.00;;
76550;SDS011;68768;53.156;18.164;2023-07-20T04:03:13;6.90;;;2.90;;
76550;SDS011;68768;53.156;18.164;2023-07-20T04:05:40;5.50;;;3.10;;
76550;SDS011;68768;53.156;18.164;2023-07-20T04:08:07;5.10;;;3.40;;
76550;SDS011;68768;53.156;18.164;2023-07-20T04:10:34;4.30;;;2.90;;
76550;SDS011;68768;53.156;18.164;2023-07-20T04:13:01;5.90;;;3.40;;
76550;SDS011;68768;53.156;18.164;2023-07-20T04:15:29;4.90;;;2.80;;
76550;SDS011;68768;53.156;18.164;2023-07-20T04:17:56;6.90;;;3.40;;
76550;SDS011;68768;53.156;18.164;2023-07-20T04:20:23;4.30;;;2.60;;
76550;SDS011;68768;53.156;18.164;2023-07-20T04:22:50;3.90;;;3.00;;
76550;SDS011;68768;53.156;18.164;2023-07-20T04:25:18;6.60;;;3.80;;
76550;SDS011;68768;53.156;18.164;2023-07-20T04:27:45;9.10;;;6.20;;
76550;SDS011;68768;53.156;18.164;2023-07-20T04:30:12;8.10;;;4.00;;
76550;SDS011;68768;53.156;18.164;2023-07-20T04:32:39;6.90;;;3.10;;
76550;SDS011;68768;53.156;18.164;2023-07-20T04:35:10;7.20;;;3.60;;
76550;SDS011;68768;53.156;18.164;2023-07-20T04:37:40;3.90;;;2.80;;
76550;SDS011;68768;53.156;18.164;2023-07-20T04:40:15;5.80;;;3.10;;
76550;SDS011;68768;53.156;18.164;2023-07-20T04:42:42;4.80;;;3.20;;
76550;SDS011;68768;53.156;18.164;2023-07-20T04:45:09;6.30;;;2.80;;
76550;SDS011;68768;53.156;18.164;2023-07-20T04:47:37;8.00;;;4.30;;
76550;SDS011;68768;53.156;18.164;2023-07-20T04:50:04;5.40;;;2.80;;
76550;SDS011;68768;53.156;18.164;2023-07-20T04:52:31;3.10;;;2.50;;
76550;SDS011;68768;53.156;18.164;2023-07-20T04:54:59;8.30;;;2.50;;
76550;SDS011;68768;53.156;18.164;2023-07-20T04:57:26;5.70;;;3.00;;
76550;SDS011;68768;53.156;18.164;2023-07-20T04:59:54;3.70;;;2.20;;
76550;SDS011;68768;53.156;18.164;2023-07-20T05:02:21;4.50;;;2.20;;
76550;SDS011;68768;53.156;18.164;2023-07-20T05:04:47;2.90;;;2.20;;
76550;SDS011;68768;53.156;18.164;2023-07-20T05:07:14;2.50;;;1.80;;
76550;SDS011;68768;53.156;18.164;2023-07-20T05:09:41;3.40;;;2.30;;
76550;SDS011;68768;53.156;18.164;2023-07-20T05:12:09;4.60;;;2.40;;
76550;SDS011;68768;53.156;18.164;2023-07-20T05:14:36;3.30;;;2.20;;
76550;SDS011;68768;53.156;18.164;2023-07-20T05:17:03;3.50;;;2.30;;
76550;SDS011;68768;53.156;18.164;2023-07-20T05:19:30;1.90;;;1.70;;
76550;SDS011;68768;53.156;18.164;2023-07-20T05:21:57;2.90;;;1.80;;
76550;SDS011;68768;53.156;18.164;2023-07-20T05:24:24;3.20;;;2.20;;
76550;SDS011;68768;53.156;18.164;2023-07-20T05:26:51;4.10;;;2.30;;
76550;SDS011;68768;53.156;18.164;2023-07-20T05:29:18;5.30;;;2.20;;
76550;SDS011;68768;53.156;18.164;2023-07-20T05:31:45;3.60;;;2.10;;
76550;SDS011;68768;53.156;18.164;2023-07-20T05:34:12;15.10;;;6.90;;
76550;SDS011;68768;53.156;18.164;2023-07-20T05:36:39;15.50;;;8.70;;
76550;SDS011;68768;53.156;18.164;2023-07-20T05:39:06;8.50;;;3.80;;
76550;SDS011;68768;53.156;18.164;2023-07-20T05:41:33;6.10;;;3.10;;
76550;SDS011;68768;53.156;18.164;2023-07-20T05:44:00;3.70;;;2.10;;
76550;SDS011;68768;53.156;18.164;2023-07-20T05:46:27;1.60;;;1.20;;
76550;SDS011;68768;53.156;18.164;2023-07-20T05:48:53;4.70;;;2.50;;
76550;SDS011;68768;53.156;18.164;2023-07-20T05:51:20;2.50;;;1.50;;
76550;SDS011;68768;53.156;18.164;2023-07-20T05:53:47;3.00;;;2.00;;
76550;SDS011;68768;53.156;18.164;2023-07-20T05:56:14;4.20;;;1.60;;
76550;SDS011;68768;53.156;18.164;2023-07-20T05:58:41;6.40;;;2.60;;
76550;SDS011;68768;53.156;18.164;2023-07-20T06:01:08;3.80;;;2.10;;
76550;SDS011;68768;53.156;18.164;2023-07-20T06:03:35;1.80;;;1.70;;
76550;SDS011;68768;53.156;18.164;2023-07-20T06:06:03;2.40;;;1.70;;
76550;SDS011;68768;53.156;18.164;2023-07-20T06:08:35;2.60;;;1.50;;
76550;SDS011;68768;53.156;18.164;2023-07-20T06:11:02;2.00;;;1.40;;
76550;SDS011;68768;53.156;18.164;2023-07-20T06:13:29;2.30;;;1.30;;
76550;SDS011;68768;53.156;18.164;2023-07-20T06:15:56;5.50;;;1.50;;
76550;SDS011;68768;53.156;18.164;2023-07-20T06:18:23;3.20;;;1.50;;
76550;SDS011;68768;53.156;18.164;2023-07-20T06:20:50;2.10;;;1.40;;
76550;SDS011;68768;53.156;18.164;2023-07-20T06:23:18;2.90;;;1.30;;
76550;SDS011;68768;53.156;18.164;2023-07-20T06:25:46;3.70;;;1.70;;
76550;SDS011;68768;53.156;18.164;2023-07-20T06:28:13;3.80;;;1.20;;
76550;SDS011;68768;53.156;18.164;2023-07-20T06:30:40;2.40;;;1.30;;
76550;SDS011;68768;53.156;18.164;2023-07-20T06:33:07;3.70;;;1.30;;
76550;SDS011;68768;53.156;18.164;2023-07-20T06:35:34;2.60;;;1.50;;
76550;SDS011;68768;53.156;18.164;2023-07-20T06:38:04;3.00;;;1.50;;
76550;SDS011;68768;53.156;18.164;2023-07-20T06:40:31;3.70;;;1.70;;
76550;SDS011;68768;53.156;18.164;2023-07-20T06:42:58;3.70;;;1.50;;
76550;SDS011;68768;53.156;18.164;2023-07-20T06:45:25;4.70;;;2.00;;
76550;SDS011;68768;53.156;18.164;2023-07-20T06:47:52;4.90;;;1.70;;
76550;SDS011;68768;53.156;18.164;2023-07-20T06:50:19;2.20;;;1.40;;
76550;SDS011;68768;53.156;18.164;2023-07-20T06:52:46;6.00;;;1.60;;
76550;SDS011;68768;53.156;18.164;2023-07-20T06:55:14;2.70;;;1.60;;
76550;SDS011;68768;53.156;18.164;2023-07-20T06:57:41;4.40;;;1.30;;
76550;SDS011;68768;53.156;18.164;2023-07-20T07:00:08;4.20;;;1.60;;
76550;SDS011;68768;53.156;18.164;2023-07-20T07:02:36;1.60;;;1.20;;
76550;SDS011;68768;53.156;18.164;2023-07-20T07:05:03;3.00;;;1.30;;
76550;SDS011;68768;53.156;18.164;2023-07-20T07:07:31;1.40;;;1.10;;
76550;SDS011;68768;53.156;18.164;2023-07-20T07:09:58;3.00;;;1.30;;
76550;SDS011;68768;53.156;18.164;2023-07-20T07:12:26;2.50;;;1.10;;
76550;SDS011;68768;53.156;18.164;2023-07-20T07:14:53;1.10;;;0.90;;
76550;SDS011;68768;53.156;18.164;2023-07-20T07:17:20;2.30;;;0.90;;
76550;SDS011;68768;53.156;18.164;2023-07-20T07:19:47;2.70;;;1.20;;
76550;SDS011;68768;53.156;18.164;2023-07-20T07:22:14;1.60;;;1.10;;
76550;SDS011;68768;53.156;18.164;2023-07-20T07:24:41;2.60;;;1.00;;
76550;SDS011;68768;53.156;18.164;2023-07-20T07:27:08;5.20;;;1.30;;
76550;SDS011;68768;53.156;18.164;2023-07-20T07:29:35;1.50;;;1.40;;
76550;SDS011;68768;53.156;18.164;2023-07-20T07:32:03;2.00;;;1.40;;
76550;SDS011;68768;53.156;18.164;2023-07-20T07:34:30;1.80;;;1.30;;
76550;SDS011;68768;53.156;18.164;2023-07-20T07:37:00;1.60;;;1.10;;
76550;SDS011;68768;53.156;18.164;2023-07-20T07:39:27;2.70;;;1.10;;
76550;SDS011;68768;53.156;18.164;2023-07-20T07:41:57;1.90;;;1.10;;
76550;SDS011;68768;53.156;18.164;2023-07-20T07:44:24;2.80;;;1.20;;
76550;SDS011;68768;53.156;18.164;2023-07-20T07:46:51;3.90;;;1.20;;
76550;SDS011;68768;53.156;18.164;2023-07-20T07:49:18;3.20;;;1.40;;
76550;SDS011;68768;53.156;18.164;2023-07-20T07:51:45;2.40;;;1.30;;
76550;SDS011;68768;53.156;18.164;2023-07-20T07:54:12;2.90;;;1.20;;
76550;SDS011;68768;53.156;18.164;2023-07-20T07:56:39;2.80;;;1.00;;
76550;SDS011;68768;53.156;18.164;2023-07-20T07:59:07;2.70;;;1.00;;
76550;SDS011;68768;53.156;18.164;2023-07-20T08:01:34;1.70;;;1.10;;
76550;SDS011;68768;53.156;18.164;2023-07-20T08:04:01;1.80;;;0.90;;
76550;SDS011;68768;53.156;18.164;2023-07-20T08:06:28;1.20;;;0.90;;
76550;SDS011;68768;53.156;18.164;2023-07-20T08:08:55;1.80;;;0.80;;
76550;SDS011;68768;53.156;18.164;2023-07-20T08:11:22;1.20;;;0.70;;
76550;SDS011;68768;53.156;18.164;2023-07-20T08:13:49;1.60;;;0.80;;
76550;SDS011;68768;53.156;18.164;2023-07-20T08:16:16;1.00;;;0.60;;
76550;SDS011;68768;53.156;18.164;2023-07-20T08:18:43;1.40;;;0.70;;
76550;SDS011;68768;53.156;18.164;2023-07-20T08:21:11;1.90;;;0.70;;
76550;SDS011;68768;53.156;18.164;2023-07-20T08:23:38;2.70;;;0.70;;
76550;SDS011;68768;53.156;18.164;2023-07-20T08:26:05;0.90;;;0.50;;
76550;SDS011;68768;53.156;18.164;2023-07-20T08:28:32;1.40;;;0.70;;
76550;SDS011;68768;53.156;18.164;2023-07-20T08:31:00;1.30;;;0.70;;
76550;SDS011;68768;53.156;18.164;2023-07-20T08:33:27;1.70;;;0.50;;
76550;SDS011;68768;53.156;18.164;2023-07-20T08:35:56;1.30;;;0.60;;
76550;SDS011;68768;53.156;18.164;2023-07-20T08:38:24;1.00;;;0.50;;
76550;SDS011;68768;53.156;18.164;2023-07-20T08:40:51;1.10;;;0.50;;
76550;SDS011;68768;53.156;18.164;2023-07-20T08:43:20;1.40;;;0.50;;
76550;SDS011;68768;53.156;18.164;2023-07-20T08:48:18;1.30;;;0.60;;
76550;SDS011;68768;53.156;18.164;2023-07-20T08:50:45;0.90;;;0.50;;
76550;SDS011;68768;53.156;18.164;2023-07-20T08:53:13;1.50;;;0.50;;
76550;SDS011;68768;53.156;18.164;2023-07-20T08:55:42;0.50;;;0.50;;
76550;SDS011;68768;53.156;18.164;2023-07-20T08:58:12;0.90;;;0.60;;
76550;SDS011;68768;53.156;18.164;2023-07-20T09:00:41;1.30;;;0.60;;
76550;SDS011;68768;53.156;18.164;2023-07-20T09:03:09;0.50;;;0.50;;
76550;SDS011;68768;53.156;18.164;2023-07-20T09:05:37;1.10;;;0.60;;
76550;SDS011;68768;53.156;18.164;2023-07-20T09:08:06;1.50;;;0.70;;
76550;SDS011;68768;53.156;18.164;2023-07-20T09:10:34;1.30;;;0.50;;
76550;SDS011;68768;53.156;18.164;2023-07-20T09:13:01;1.10;;;0.60;;
76550;SDS011;68768;53.156;18.164;2023-07-20T09:15:28;1.00;;;0.50;;
76550;SDS011;68768;53.156;18.164;2023-07-20T09:17:56;1.10;;;0.60;;
76550;SDS011;68768;53.156;18.164;2023-07-20T09:20:27;3.30;;;0.80;;
76550;SDS011;68768;53.156;18.164;2023-07-20T09:22:58;0.60;;;0.60;;
76550;SDS011;68768;53.156;18.164;2023-07-20T09:25:25;1.40;;;0.50;;
76550;SDS011;68768;53.156;18.164;2023-07-20T09:27:53;2.30;;;0.60;;
76550;SDS011;68768;53.156;18.164;2023-07-20T09:30:21;0.40;;;0.40;;
76550;SDS011;68768;53.156;18.164;2023-07-20T09:32:52;0.90;;;0.60;;
76550;SDS011;68768;53.156;18.164;2023-07-20T09:35:20;0.60;;;0.50;;
76550;SDS011;68768;53.156;18.164;2023-07-20T09:37:55;0.70;;;0.60;;
76550;SDS011;68768;53.156;18.164;2023-07-20T09:40:28;1.10;;;0.80;;
76550;SDS011;68768;53.156;18.164;2023-07-20T09:42:55;2.40;;;0.70;;
76550;SDS011;68768;53.156;18.164;2023-07-20T09:45:35;0.50;;;0.50;;
76550;SDS011;68768;53.156;18.164;2023-07-20T09:48:06;2.00;;;0.60;;
76550;SDS011;68768;53.156;18.164;2023-07-20T09:50:40;0.80;;;0.60;;
76550;SDS011;68768;53.156;18.164;2023-07-20T09:53:16;1.20;;;0.60;;
76550;SDS011;68768;53.156;18.164;2023-07-20T09:55:47;0.50;;;0.50;;
76550;SDS011;68768;53.156;18.164;2023-07-20T09:58:15;1.30;;;0.50;;
76550;SDS011;68768;53.156;18.164;2023-07-20T10:00:43;2.30;;;0.40;;
76550;SDS011;68768;53.156;18.164;2023-07-20T10:03:20;1.30;;;0.40;;
76550;SDS011;68768;53.156;18.164;2023-07-20T10:05:52;0.70;;;0.60;;
76550;SDS011;68768;53.156;18.164;2023-07-20T10:08:46;3.10;;;0.70;;
76550;SDS011;68768;53.156;18.164;2023-07-20T10:11:15;1.60;;;0.50;;
76550;SDS011;68768;53.156;18.164;2023-07-20T10:13:43;0.40;;;0.30;;
76550;SDS011;68768;53.156;18.164;2023-07-20T10:16:20;1.40;;;0.50;;
76550;SDS011;68768;53.156;18.164;2023-07-20T10:18:58;0.50;;;0.30;;
76550;SDS011;68768;53.156;18.164;2023-07-20T10:21:26;0.80;;;0.50;;
76550;SDS011;68768;53.156;18.164;2023-07-20T10:23:54;1.00;;;0.70;;
76550;SDS011;68768;53.156;18.164;2023-07-20T10:26:22;0.70;;;0.50;;
76550;SDS011;68768;53.156;18.164;2023-07-20T10:28:50;1.40;;;0.50;;
76550;SDS011;68768;53.156;18.164;2023-07-20T10:31:17;1.50;;;0.60;;
76550;SDS011;68768;53.156;18.164;2023-07-20T10:33:45;0.70;;;0.40;;
76550;SDS011;68768;53.156;18.164;2023-07-20T10:36:12;0.60;;;0.40;;
76550;SDS011;68768;53.156;18.164;2023-07-20T10:38:45;2.80;;;0.40;;
76550;SDS011;68768;53.156;18.164;2023-07-20T10:41:32;2.00;;;0.40;;
76550;SDS011;68768;53.156;18.164;2023-07-20T10:44:01;0.70;;;0.60;;
76550;SDS011;68768;53.156;18.164;2023-07-20T10:49:06;1.30;;;0.50;;
76550;SDS011;68768;53.156;18.164;2023-07-20T10:51:41;0.70;;;0.60;;
76550;SDS011;68768;53.156;18.164;2023-07-20T10:56:43;0.80;;;0.60;;
76550;SDS011;68768;53.156;18.164;2023-07-20T10:59:20;1.10;;;0.60;;
76550;SDS011;68768;53.156;18.164;2023-07-20T11:02:06;0.80;;;0.50;;
76550;SDS011;68768;53.156;18.164;2023-07-20T11:04:41;0.90;;;0.50;;
76550;SDS011;68768;53.156;18.164;2023-07-20T11:07:10;1.60;;;0.50;;
76550;SDS011;68768;53.156;18.164;2023-07-20T11:09:41;0.60;;;0.40;;
76550;SDS011;68768;53.156;18.164;2023-07-20T11:12:09;0.80;;;0.50;;
76550;SDS011;68768;53.156;18.164;2023-07-20T11:14:41;1.10;;;0.70;;
76550;SDS011;68768;53.156;18.164;2023-07-20T11:17:13;2.90;;;0.50;;
76550;SDS011;68768;53.156;18.164;2023-07-20T11:19:41;0.40;;;0.40;;
76550;SDS011;68768;53.156;18.164;2023-07-20T11:22:08;0.70;;;0.70;;
76550;SDS011;68768;53.156;18.164;2023-07-20T11:24:39;1.20;;;0.50;;
76550;SDS011;68768;53.156;18.164;2023-07-20T11:27:07;2.30;;;0.70;;
76550;SDS011;68768;53.156;18.164;2023-07-20T11:29:34;1.10;;;0.60;;
76550;SDS011;68768;53.156;18.164;2023-07-20T11:32:02;0.50;;;0.40;;
76550;SDS011;68768;53.156;18.164;2023-07-20T11:34:31;2.40;;;0.50;;
76550;SDS011;68768;53.156;18.164;2023-07-20T11:36:59;1.90;;;0.50;;
76550;SDS011;68768;53.156;18.164;2023-07-20T11:39:26;1.30;;;0.70;;
76550;SDS011;68768;53.156;18.164;2023-07-20T11:41:57;0.50;;;0.40;;
76550;SDS011;68768;53.156;18.164;2023-07-20T11:44:25;1.10;;;0.50;;
76550;SDS011;68768;53.156;18.164;2023-07-20T11:47:00;0.70;;;0.60;;
76550;SDS011;68768;53.156;18.164;2023-07-20T11:49:34;0.80;;;0.50;;
76550;SDS011;68768;53.156;18.164;2023-07-20T11:52:03;2.60;;;0.60;;
76550;SDS011;68768;53.156;18.164;2023-07-20T11:54:35;1.40;;;0.40;;
76550;SDS011;68768;53.156;18.164;2023-07-20T11:57:04;1.10;;;0.60;;
76550;SDS011;68768;53.156;18.164;2023-07-20T11:59:32;3.50;;;0.50;;
76550;SDS011;68768;53.156;18.164;2023-07-20T12:02:02;1.20;;;0.40;;
76550;SDS011;68768;53.156;18.164;2023-07-20T12:04:33;1.60;;;0.40;;
76550;SDS011;68768;53.156;18.164;2023-07-20T12:07:00;2.80;;;0.50;;
76550;SDS011;68768;53.156;18.164;2023-07-20T12:09:27;1.70;;;0.50;;
76550;SDS011;68768;53.156;18.164;2023-07-20T12:11:55;2.30;;;0.80;;
76550;SDS011;68768;53.156;18.164;2023-07-20T12:14:24;2.00;;;0.60;;
76550;SDS011;68768;53.156;18.164;2023-07-20T12:16:52;1.40;;;0.50;;
76550;SDS011;68768;53.156;18.164;2023-07-20T12:19:24;2.10;;;0.70;;
76550;SDS011;68768;53.156;18.164;2023-07-20T12:21:56;1.40;;;0.60;;
76550;SDS011;68768;53.156;18.164;2023-07-20T12:24:26;0.50;;;0.50;;
76550;SDS011;68768;53.156;18.164;2023-07-20T12:26:55;1.50;;;0.70;;
76550;SDS011;68768;53.156;18.164;2023-07-20T12:29:24;1.20;;;0.60;;
76550;SDS011;68768;53.156;18.164;2023-07-20T12:31:51;2.00;;;0.60;;
76550;SDS011;68768;53.156;18.164;2023-07-20T12:34:19;3.70;;;0.70;;
76550;SDS011;68768;53.156;18.164;2023-07-20T12:36:46;3.30;;;0.70;;
76550;SDS011;68768;53.156;18.164;2023-07-20T12:39:12;0.70;;;0.60;;
76550;SDS011;68768;53.156;18.164;2023-07-20T12:41:39;1.10;;;0.70;;
76550;SDS011;68768;53.156;18.164;2023-07-20T12:44:06;1.50;;;0.70;;
76550;SDS011;68768;53.156;18.164;2023-07-20T12:46:34;2.10;;;0.50;;
76550;SDS011;68768;53.156;18.164;2023-07-20T12:49:04;0.80;;;0.60;;
76550;SDS011;68768;53.156;18.164;2023-07-20T12:51:31;1.60;;;0.50;;
76550;SDS011;68768;53.156;18.164;2023-07-20T12:53:58;0.70;;;0.40;;
76550;SDS011;68768;53.156;18.164;2023-07-20T12:56:25;1.90;;;0.70;;
76550;SDS011;68768;53.156;18.164;2023-07-20T12:58:52;0.50;;;0.50;;
76550;SDS011;68768;53.156;18.164;2023-07-20T13:01:18;1.30;;;0.60;;
76550;SDS011;68768;53.156;18.164;2023-07-20T13:03:45;0.70;;;0.60;;
76550;SDS011;68768;53.156;18.164;2023-07-20T13:06:12;1.60;;;0.70;;
76550;SDS011;68768;53.156;18.164;2023-07-20T13:08:39;1.00;;;0.40;;
76550;SDS011;68768;53.156;18.164;2023-07-20T13:11:07;0.80;;;0.50;;
76550;SDS011;68768;53.156;18.164;2023-07-20T13:13:33;1.30;;;0.60;;
76550;SDS011;68768;53.156;18.164;2023-07-20T13:16:01;0.60;;;0.50;;
76550;SDS011;68768;53.156;18.164;2023-07-20T13:18:28;0.40;;;0.40;;
76550;SDS011;68768;53.156;18.164;2023-07-20T13:20:55;1.30;;;0.50;;
76550;SDS011;68768;53.156;18.164;2023-07-20T13:23:22;0.40;;;0.40;;
76550;SDS011;68768;53.156;18.164;2023-07-20T13:25:49;0.60;;;0.30;;
76550;SDS011;68768;53.156;18.164;2023-07-20T13:28:16;0.50;;;0.40;;
76550;SDS011;68768;53.156;18.164;2023-07-20T13:30:43;1.00;;;0.70;;
76550;SDS011;68768;53.156;18.164;2023-07-20T13:33:12;0.40;;;0.40;;
76550;SDS011;68768;53.156;18.164;2023-07-20T13:35:39;1.30;;;0.60;;
76550;SDS011;68768;53.156;18.164;2023-07-20T13:38:08;0.40;;;0.40;;
76550;SDS011;68768;53.156;18.164;2023-07-20T13:40:36;0.90;;;0.40;;
76550;SDS011;68768;53.156;18.164;2023-07-20T13:43:03;0.60;;;0.60;;
76550;SDS011;68768;53.156;18.164;2023-07-20T13:45:30;0.80;;;0.40;;
76550;SDS011;68768;53.156;18.164;2023-07-20T13:47:57;0.50;;;0.50;;
76550;SDS011;68768;53.156;18.164;2023-07-20T13:50:24;0.70;;;0.60;;
76550;SDS011;68768;53.156;18.164;2023-07-20T13:52:51;1.60;;;0.40;;
76550;SDS011;68768;53.156;18.164;2023-07-20T13:55:18;0.80;;;0.50;;
76550;SDS011;68768;53.156;18.164;2023-07-20T13:57:46;1.10;;;0.40;;
76550;SDS011;68768;53.156;18.164;2023-07-20T14:00:14;0.50;;;0.50;;
76550;SDS011;68768;53.156;18.164;2023-07-20T14:02:41;0.40;;;0.40;;
76550;SDS011;68768;53.156;18.164;2023-07-20T14:05:08;0.60;;;0.40;;
76550;SDS011;68768;53.156;18.164;2023-07-20T14:07:36;0.70;;;0.40;;
76550;SDS011;68768;53.156;18.164;2023-07-20T14:10:04;1.30;;;0.40;;
76550;SDS011;68768;53.156;18.164;2023-07-20T14:12:31;1.10;;;0.50;;
76550;SDS011;68768;53.156;18.164;2023-07-20T14:14:58;1.10;;;0.40;;
76550;SDS011;68768;53.156;18.164;2023-07-20T14:17:25;0.50;;;0.50;;
76550;SDS011;68768;53.156;18.164;2023-07-20T14:19:52;0.70;;;0.50;;
76550;SDS011;68768;53.156;18.164;2023-07-20T14:22:19;1.10;;;0.50;;
76550;SDS011;68768;53.156;18.164;2023-07-20T14:24:46;0.50;;;0.50;;
76550;SDS011;68768;53.156;18.164;2023-07-20T14:27:13;1.40;;;0.50;;
76550;SDS011;68768;53.156;18.164;2023-07-20T14:29:40;0.40;;;0.40;;
76550;SDS011;68768;53.156;18.164;2023-07-20T14:32:07;0.40;;;0.40;;
76550;SDS011;68768;53.156;18.164;2023-07-20T14:34:34;0.60;;;0.50;;
76550;SDS011;68768;53.156;18.164;2023-07-20T14:37:01;1.30;;;0.40;;
76550;SDS011;68768;53.156;18.164;2023-07-20T14:39:29;1.10;;;0.60;;
76550;SDS011;68768;53.156;18.164;2023-07-20T14:41:55;0.30;;;0.30;;
76550;SDS011;68768;53.156;18.164;2023-07-20T14:44:23;0.90;;;0.50;;
76550;SDS011;68768;53.156;18.164;2023-07-20T14:46:50;0.40;;;0.40;;
76550;SDS011;68768;53.156;18.164;2023-07-20T14:49:17;0.40;;;0.40;;
76550;SDS011;68768;53.156;18.164;2023-07-20T14:51:44;0.60;;;0.60;;
76550;SDS011;68768;53.156;18.164;2023-07-20T14:54:13;0.30;;;0.30;;
76550;SDS011;68768;53.156;18.164;2023-07-20T14:56:48;0.40;;;0.30;;
76550;SDS011;68768;53.156;18.164;2023-07-20T14:59:17;0.60;;;0.40;;
76550;SDS011;68768;53.156;18.164;2023-07-20T15:01:44;0.30;;;0.30;;
76550;SDS011;68768;53.156;18.164;2023-07-20T15:04:14;0.40;;;0.30;;